• pl
  • eng

Awiacja
TAF dla lotnisk wojskowych 04:30 19.06.2018

TAF EPCE 182300Z 1900/1909 VRB03KT CAVOK BECMG 1902/1904 19006KT
PROB40 TEMPO 19 07/1909 26012KT BKN030=

TAF EPCE 190200Z 1903/1912 24010KT CAVOK TEMPO 1906/1912 24015G28KT=

TAF EPDA 182300Z 1900/1909 18006KT CAVOK BECMG 1902/1904 BKN030=

TAF EPDA 190200Z 1903/1912 22010KT CAVOK PROB40 1904/1909 BKN030
TEMPO 1906/1912 22015G28KT=

TAF EPDE 182300Z 1900/1909 VRB03KT CAVOK
BECMG 1906/1908 30010KT=

TAF EPDE 190200Z 1903/1912 28006KT CAVOK
BECMG 1906/1908 30012KT 9999 SCT015=

TAF EPKS 182300Z 1900/1909 26005KT CAVOK
PROB40 TEMPO 1902/1905 VRB02KT
BECMG 1906/1908 27010KT=

TAF EPKS 190200Z 1903/1912 26005KT CAVOK
PROB40 1903/1905 VRB02KT
BECMG 1906/1908 27010KT=

TAF EPLY 182300Z 1900/1909 VRB03KT CAVOK=

TAF EPLY 190200Z 1903/1912 VRB03KT CAVOK BECMG 1908/1910 27012KT=

TAF EPMB 182300Z 1900/1909 VRB02KT CAVOK=

TAF EPMB 190200Z 1903/1912 19004KT CAVOK BECMG 1907/1909 20010KT 9999
SCT033 BKN 080=

TAF EPMI 182300Z 1900/1909 24004KT CAVOK TEMPO 1903/1909 SCT020=

TAF EPMI 190200Z 1903/1912 24004KT CAVOK TEMPO 1903/1909 SCT020 BECMG
1909/1911 27012KT=

TAF EPMM 182300Z 1900/1909 34005KT CAVOK BECMG 1902/1904 26010KT=

TAF EPMM 190200Z 1903/1912 30005KT CAVOK BECMG 1909/1911 SCT033=

TAF EPOK 182300Z 1900/1909 18008KT CAVOK=

TAF EPOK 190200Z 1903/1912 21010KT CAVOK BECMG 1906/1908 27015KT=

TAF EPPW 182300Z 1900/1909 26006KT CAVOK TEMPO 1900/1905 VRB02KT=

TAF EPPW 190200Z 1903/1912 26006KT CAVOK TEMPO 1903/1905 VRB02KT
PROB40 TEMPO 19 08/1912 26015G25KT=

TAF EPSN 182300Z 1900/1909 22006KT CAVOK=

TAF EPSN 190200Z 1903/1912 22006KT CAVOK BECMG 1908/1910 27012KT=

TAF AMD EPTM 190050Z 1900/1909 CNL=
Awiacja.imgw.pl jest pogodowym serwisem informacyjnym
Instytutu Meteorologii i Gospodarki Wodnej Państwowego Instytutu Badawczego.
Copyright IMGW PIB 2009-2011© Wszelkie prawa zastrzeżone.